sensor_id;sensor_type;location;lat;lon;timestamp;P1;durP1;ratioP1;P2;durP2;ratioP2
16037;SDS011;8123;50.906;6.172;2024-01-25T00:01:19;71.07;;;10.03;;
16037;SDS011;8123;50.906;6.172;2024-01-25T00:03:44;46.60;;;6.90;;
16037;SDS011;8123;50.906;6.172;2024-01-25T00:06:10;63.53;;;9.43;;
16037;SDS011;8123;50.906;6.172;2024-01-25T00:08:36;76.10;;;8.20;;
16037;SDS011;8123;50.906;6.172;2024-01-25T00:11:02;89.87;;;9.87;;
16037;SDS011;8123;50.906;6.172;2024-01-25T00:13:28;82.23;;;11.07;;
16037;SDS011;8123;50.906;6.172;2024-01-25T00:15:54;68.80;;;9.77;;
16037;SDS011;8123;50.906;6.172;2024-01-25T00:18:19;53.50;;;7.70;;
16037;SDS011;8123;50.906;6.172;2024-01-25T00:20:45;65.90;;;8.50;;
16037;SDS011;8123;50.906;6.172;2024-01-25T00:23:11;54.87;;;8.17;;
16037;SDS011;8123;50.906;6.172;2024-01-25T00:25:37;64.53;;;8.60;;
16037;SDS011;8123;50.906;6.172;2024-01-25T00:28:02;74.23;;;7.10;;
16037;SDS011;8123;50.906;6.172;2024-01-25T00:30:28;62.10;;;9.40;;
16037;SDS011;8123;50.906;6.172;2024-01-25T00:32:55;55.33;;;8.03;;
16037;SDS011;8123;50.906;6.172;2024-01-25T00:35:22;73.33;;;9.50;;
16037;SDS011;8123;50.906;6.172;2024-01-25T00:37:48;74.83;;;8.77;;
16037;SDS011;8123;50.906;6.172;2024-01-25T00:40:14;62.33;;;9.87;;
16037;SDS011;8123;50.906;6.172;2024-01-25T00:42:45;65.57;;;8.10;;
16037;SDS011;8123;50.906;6.172;2024-01-25T00:45:18;83.77;;;11.80;;
16037;SDS011;8123;50.906;6.172;2024-01-25T00:47:45;79.50;;;9.50;;
16037;SDS011;8123;50.906;6.172;2024-01-25T00:50:11;64.57;;;8.33;;
16037;SDS011;8123;50.906;6.172;2024-01-25T00:52:37;53.33;;;7.83;;
16037;SDS011;8123;50.906;6.172;2024-01-25T00:55:03;67.00;;;8.23;;
16037;SDS011;8123;50.906;6.172;2024-01-25T00:57:30;66.87;;;9.73;;
16037;SDS011;8123;50.906;6.172;2024-01-25T00:59:56;71.53;;;9.00;;
16037;SDS011;8123;50.906;6.172;2024-01-25T01:02:22;83.03;;;9.17;;
16037;SDS011;8123;50.906;6.172;2024-01-25T01:04:49;80.33;;;10.73;;
16037;SDS011;8123;50.906;6.172;2024-01-25T01:07:15;49.90;;;7.83;;
16037;SDS011;8123;50.906;6.172;2024-01-25T01:09:40;64.23;;;8.10;;
16037;SDS011;8123;50.906;6.172;2024-01-25T01:12:06;54.97;;;9.50;;
16037;SDS011;8123;50.906;6.172;2024-01-25T01:14:32;75.03;;;9.73;;
16037;SDS011;8123;50.906;6.172;2024-01-25T01:16:58;59.00;;;8.77;;
16037;SDS011;8123;50.906;6.172;2024-01-25T01:19:23;78.63;;;9.27;;
16037;SDS011;8123;50.906;6.172;2024-01-25T01:21:49;60.23;;;8.77;;
16037;SDS011;8123;50.906;6.172;2024-01-25T01:24:15;55.17;;;8.23;;
16037;SDS011;8123;50.906;6.172;2024-01-25T01:26:40;85.03;;;10.50;;
16037;SDS011;8123;50.906;6.172;2024-01-25T01:29:07;74.07;;;9.03;;
16037;SDS011;8123;50.906;6.172;2024-01-25T01:31:33;75.97;;;9.50;;
16037;SDS011;8123;50.906;6.172;2024-01-25T01:33:59;77.30;;;8.70;;
16037;SDS011;8123;50.906;6.172;2024-01-25T01:36:25;71.80;;;9.53;;
16037;SDS011;8123;50.906;6.172;2024-01-25T01:38:51;76.87;;;8.33;;
16037;SDS011;8123;50.906;6.172;2024-01-25T01:41:17;75.90;;;8.87;;
16037;SDS011;8123;50.906;6.172;2024-01-25T01:43:42;59.80;;;8.67;;
16037;SDS011;8123;50.906;6.172;2024-01-25T01:46:12;51.30;;;9.90;;
16037;SDS011;8123;50.906;6.172;2024-01-25T01:48:54;67.67;;;12.37;;
16037;SDS011;8123;50.906;6.172;2024-01-25T01:51:20;61.03;;;8.70;;
16037;SDS011;8123;50.906;6.172;2024-01-25T01:53:45;70.07;;;8.80;;
16037;SDS011;8123;50.906;6.172;2024-01-25T01:56:11;83.23;;;10.07;;
16037;SDS011;8123;50.906;6.172;2024-01-25T01:58:37;77.10;;;11.10;;
16037;SDS011;8123;50.906;6.172;2024-01-25T02:01:04;63.03;;;9.07;;
16037;SDS011;8123;50.906;6.172;2024-01-25T02:03:30;84.73;;;9.67;;
16037;SDS011;8123;50.906;6.172;2024-01-25T02:05:56;72.27;;;8.00;;
16037;SDS011;8123;50.906;6.172;2024-01-25T02:08:27;72.93;;;9.83;;
16037;SDS011;8123;50.906;6.172;2024-01-25T02:10:55;53.73;;;10.33;;
16037;SDS011;8123;50.906;6.172;2024-01-25T02:13:21;51.37;;;7.83;;
16037;SDS011;8123;50.906;6.172;2024-01-25T02:15:47;75.50;;;8.77;;
16037;SDS011;8123;50.906;6.172;2024-01-25T02:18:12;80.90;;;9.03;;
16037;SDS011;8123;50.906;6.172;2024-01-25T02:20:39;50.73;;;7.43;;
16037;SDS011;8123;50.906;6.172;2024-01-25T02:23:05;57.10;;;8.73;;
16037;SDS011;8123;50.906;6.172;2024-01-25T02:25:31;72.60;;;8.80;;
16037;SDS011;8123;50.906;6.172;2024-01-25T02:27:57;85.07;;;9.53;;
16037;SDS011;8123;50.906;6.172;2024-01-25T02:30:22;77.47;;;9.83;;
16037;SDS011;8123;50.906;6.172;2024-01-25T02:32:48;65.93;;;8.93;;
16037;SDS011;8123;50.906;6.172;2024-01-25T02:35:13;55.60;;;7.93;;
16037;SDS011;8123;50.906;6.172;2024-01-25T02:37:39;48.43;;;7.70;;
16037;SDS011;8123;50.906;6.172;2024-01-25T02:40:05;80.13;;;8.27;;
16037;SDS011;8123;50.906;6.172;2024-01-25T02:42:31;65.93;;;10.37;;
16037;SDS011;8123;50.906;6.172;2024-01-25T02:44:56;77.20;;;8.07;;
16037;SDS011;8123;50.906;6.172;2024-01-25T02:47:22;58.07;;;8.20;;
16037;SDS011;8123;50.906;6.172;2024-01-25T02:49:47;94.47;;;12.03;;
16037;SDS011;8123;50.906;6.172;2024-01-25T02:52:13;64.57;;;9.40;;
16037;SDS011;8123;50.906;6.172;2024-01-25T02:54:39;66.60;;;9.10;;
16037;SDS011;8123;50.906;6.172;2024-01-25T02:57:04;60.33;;;9.10;;
16037;SDS011;8123;50.906;6.172;2024-01-25T02:59:31;64.53;;;8.90;;
16037;SDS011;8123;50.906;6.172;2024-01-25T03:01:57;80.17;;;11.73;;
16037;SDS011;8123;50.906;6.172;2024-01-25T03:04:22;84.37;;;9.03;;
16037;SDS011;8123;50.906;6.172;2024-01-25T03:06:48;87.63;;;9.30;;
16037;SDS011;8123;50.906;6.172;2024-01-25T03:09:14;108.63;;;9.83;;
16037;SDS011;8123;50.906;6.172;2024-01-25T03:11:39;75.60;;;9.70;;
16037;SDS011;8123;50.906;6.172;2024-01-25T03:14:05;86.33;;;11.10;;
16037;SDS011;8123;50.906;6.172;2024-01-25T03:16:31;65.40;;;9.93;;
16037;SDS011;8123;50.906;6.172;2024-01-25T03:18:56;91.97;;;11.20;;
16037;SDS011;8123;50.906;6.172;2024-01-25T03:21:22;91.90;;;8.90;;
16037;SDS011;8123;50.906;6.172;2024-01-25T03:23:48;67.10;;;10.10;;
16037;SDS011;8123;50.906;6.172;2024-01-25T03:26:14;52.80;;;8.47;;
16037;SDS011;8123;50.906;6.172;2024-01-25T03:28:39;66.43;;;10.70;;
16037;SDS011;8123;50.906;6.172;2024-01-25T03:31:05;64.37;;;8.47;;
16037;SDS011;8123;50.906;6.172;2024-01-25T03:33:31;46.63;;;6.63;;
16037;SDS011;8123;50.906;6.172;2024-01-25T03:36:01;68.43;;;11.47;;
16037;SDS011;8123;50.906;6.172;2024-01-25T03:38:30;82.47;;;9.63;;
16037;SDS011;8123;50.906;6.172;2024-01-25T03:40:56;66.00;;;11.30;;
16037;SDS011;8123;50.906;6.172;2024-01-25T03:43:24;75.43;;;11.10;;
16037;SDS011;8123;50.906;6.172;2024-01-25T03:45:50;72.07;;;10.33;;
16037;SDS011;8123;50.906;6.172;2024-01-25T03:48:16;64.97;;;10.07;;
16037;SDS011;8123;50.906;6.172;2024-01-25T03:50:41;66.87;;;8.43;;
16037;SDS011;8123;50.906;6.172;2024-01-25T03:53:08;67.80;;;9.13;;
16037;SDS011;8123;50.906;6.172;2024-01-25T03:55:33;91.37;;;9.03;;
16037;SDS011;8123;50.906;6.172;2024-01-25T03:57:59;96.83;;;10.87;;
16037;SDS011;8123;50.906;6.172;2024-01-25T04:00:25;61.80;;;9.70;;
16037;SDS011;8123;50.906;6.172;2024-01-25T04:02:50;86.57;;;9.80;;
16037;SDS011;8123;50.906;6.172;2024-01-25T04:05:16;65.50;;;9.37;;
16037;SDS011;8123;50.906;6.172;2024-01-25T04:07:42;67.20;;;9.00;;
16037;SDS011;8123;50.906;6.172;2024-01-25T04:10:09;77.13;;;9.67;;
16037;SDS011;8123;50.906;6.172;2024-01-25T04:12:35;62.23;;;9.53;;
16037;SDS011;8123;50.906;6.172;2024-01-25T04:15:01;58.30;;;11.43;;
16037;SDS011;8123;50.906;6.172;2024-01-25T04:17:26;61.50;;;9.20;;
16037;SDS011;8123;50.906;6.172;2024-01-25T04:19:52;61.43;;;8.10;;
16037;SDS011;8123;50.906;6.172;2024-01-25T04:22:17;94.47;;;11.50;;
16037;SDS011;8123;50.906;6.172;2024-01-25T04:24:43;84.90;;;8.77;;
16037;SDS011;8123;50.906;6.172;2024-01-25T04:27:09;91.13;;;9.50;;
16037;SDS011;8123;50.906;6.172;2024-01-25T04:29:39;73.63;;;9.37;;
16037;SDS011;8123;50.906;6.172;2024-01-25T04:32:06;73.83;;;9.60;;
16037;SDS011;8123;50.906;6.172;2024-01-25T04:34:32;72.00;;;8.87;;
16037;SDS011;8123;50.906;6.172;2024-01-25T04:36:58;59.73;;;9.47;;
16037;SDS011;8123;50.906;6.172;2024-01-25T04:39:23;69.10;;;10.27;;
16037;SDS011;8123;50.906;6.172;2024-01-25T04:41:49;75.30;;;11.80;;
16037;SDS011;8123;50.906;6.172;2024-01-25T04:44:15;55.90;;;9.87;;
16037;SDS011;8123;50.906;6.172;2024-01-25T04:46:41;63.70;;;8.80;;
16037;SDS011;8123;50.906;6.172;2024-01-25T04:49:07;69.60;;;8.83;;
16037;SDS011;8123;50.906;6.172;2024-01-25T04:51:32;53.23;;;8.80;;
16037;SDS011;8123;50.906;6.172;2024-01-25T04:53:58;53.17;;;7.03;;
16037;SDS011;8123;50.906;6.172;2024-01-25T04:56:23;70.13;;;8.20;;
16037;SDS011;8123;50.906;6.172;2024-01-25T04:58:49;83.97;;;10.57;;
16037;SDS011;8123;50.906;6.172;2024-01-25T05:01:15;76.67;;;12.13;;
16037;SDS011;8123;50.906;6.172;2024-01-25T05:03:40;62.17;;;9.63;;
16037;SDS011;8123;50.906;6.172;2024-01-25T05:06:06;68.63;;;8.40;;
16037;SDS011;8123;50.906;6.172;2024-01-25T05:08:31;82.23;;;10.40;;
16037;SDS011;8123;50.906;6.172;2024-01-25T05:10:57;65.70;;;10.93;;
16037;SDS011;8123;50.906;6.172;2024-01-25T05:13:23;72.27;;;12.47;;
16037;SDS011;8123;50.906;6.172;2024-01-25T05:15:49;65.33;;;12.03;;
16037;SDS011;8123;50.906;6.172;2024-01-25T05:18:14;90.57;;;12.30;;
16037;SDS011;8123;50.906;6.172;2024-01-25T05:20:40;68.90;;;12.13;;
16037;SDS011;8123;50.906;6.172;2024-01-25T05:23:06;109.93;;;13.17;;
16037;SDS011;8123;50.906;6.172;2024-01-25T05:25:31;126.07;;;15.57;;
16037;SDS011;8123;50.906;6.172;2024-01-25T05:27:57;75.60;;;12.83;;
16037;SDS011;8123;50.906;6.172;2024-01-25T05:30:24;66.97;;;10.10;;
16037;SDS011;8123;50.906;6.172;2024-01-25T05:32:50;74.40;;;10.73;;
16037;SDS011;8123;50.906;6.172;2024-01-25T05:35:18;81.30;;;11.60;;
16037;SDS011;8123;50.906;6.172;2024-01-25T05:37:44;72.47;;;11.30;;
16037;SDS011;8123;50.906;6.172;2024-01-25T05:40:10;70.23;;;9.17;;
16037;SDS011;8123;50.906;6.172;2024-01-25T05:42:36;86.97;;;10.00;;
16037;SDS011;8123;50.906;6.172;2024-01-25T05:45:02;80.00;;;10.87;;
16037;SDS011;8123;50.906;6.172;2024-01-25T05:47:29;81.33;;;11.53;;
16037;SDS011;8123;50.906;6.172;2024-01-25T05:49:55;86.40;;;9.47;;
16037;SDS011;8123;50.906;6.172;2024-01-25T05:52:22;67.80;;;9.50;;
16037;SDS011;8123;50.906;6.172;2024-01-25T05:54:49;74.43;;;11.00;;
16037;SDS011;8123;50.906;6.172;2024-01-25T05:57:15;89.70;;;13.33;;
16037;SDS011;8123;50.906;6.172;2024-01-25T05:59:40;79.30;;;11.73;;
16037;SDS011;8123;50.906;6.172;2024-01-25T06:02:06;83.60;;;10.10;;
16037;SDS011;8123;50.906;6.172;2024-01-25T06:04:33;76.90;;;11.00;;
16037;SDS011;8123;50.906;6.172;2024-01-25T06:07:00;92.27;;;11.63;;
16037;SDS011;8123;50.906;6.172;2024-01-25T06:09:26;73.33;;;10.90;;
16037;SDS011;8123;50.906;6.172;2024-01-25T06:11:51;77.50;;;12.40;;
16037;SDS011;8123;50.906;6.172;2024-01-25T06:14:18;67.77;;;11.10;;
16037;SDS011;8123;50.906;6.172;2024-01-25T06:16:44;116.77;;;12.73;;
16037;SDS011;8123;50.906;6.172;2024-01-25T06:19:10;93.80;;;11.77;;
16037;SDS011;8123;50.906;6.172;2024-01-25T06:21:37;91.30;;;12.80;;
16037;SDS011;8123;50.906;6.172;2024-01-25T06:24:03;72.33;;;11.20;;
16037;SDS011;8123;50.906;6.172;2024-01-25T06:26:29;94.57;;;13.17;;
16037;SDS011;8123;50.906;6.172;2024-01-25T06:28:55;59.07;;;12.43;;
16037;SDS011;8123;50.906;6.172;2024-01-25T06:31:22;83.73;;;12.60;;
16037;SDS011;8123;50.906;6.172;2024-01-25T06:33:50;96.33;;;12.90;;
16037;SDS011;8123;50.906;6.172;2024-01-25T06:36:17;85.50;;;13.30;;
16037;SDS011;8123;50.906;6.172;2024-01-25T06:38:43;110.40;;;13.90;;
16037;SDS011;8123;50.906;6.172;2024-01-25T06:41:09;113.27;;;13.67;;
16037;SDS011;8123;50.906;6.172;2024-01-25T06:43:35;74.43;;;12.07;;
16037;SDS011;8123;50.906;6.172;2024-01-25T06:46:00;100.00;;;13.63;;
16037;SDS011;8123;50.906;6.172;2024-01-25T06:48:26;102.23;;;14.87;;
16037;SDS011;8123;50.906;6.172;2024-01-25T06:50:52;64.10;;;12.67;;
16037;SDS011;8123;50.906;6.172;2024-01-25T06:53:18;63.87;;;10.90;;
16037;SDS011;8123;50.906;6.172;2024-01-25T06:55:44;60.80;;;9.13;;
16037;SDS011;8123;50.906;6.172;2024-01-25T06:58:10;99.97;;;11.47;;
16037;SDS011;8123;50.906;6.172;2024-01-25T07:00:35;92.70;;;11.10;;
16037;SDS011;8123;50.906;6.172;2024-01-25T07:03:03;82.73;;;9.93;;
16037;SDS011;8123;50.906;6.172;2024-01-25T07:05:29;76.67;;;13.10;;
16037;SDS011;8123;50.906;6.172;2024-01-25T07:07:58;117.80;;;12.27;;
16037;SDS011;8123;50.906;6.172;2024-01-25T07:10:24;103.10;;;13.97;;
16037;SDS011;8123;50.906;6.172;2024-01-25T07:12:49;88.00;;;13.60;;
16037;SDS011;8123;50.906;6.172;2024-01-25T07:15:16;72.73;;;12.67;;
16037;SDS011;8123;50.906;6.172;2024-01-25T07:17:41;89.90;;;10.67;;
16037;SDS011;8123;50.906;6.172;2024-01-25T07:20:08;83.30;;;12.20;;
16037;SDS011;8123;50.906;6.172;2024-01-25T07:22:33;80.13;;;12.97;;
16037;SDS011;8123;50.906;6.172;2024-01-25T07:24:59;76.20;;;12.23;;
16037;SDS011;8123;50.906;6.172;2024-01-25T07:27:25;79.17;;;10.90;;
16037;SDS011;8123;50.906;6.172;2024-01-25T07:29:51;77.20;;;10.07;;
16037;SDS011;8123;50.906;6.172;2024-01-25T07:32:17;88.17;;;9.30;;
16037;SDS011;8123;50.906;6.172;2024-01-25T07:34:43;69.50;;;10.50;;
16037;SDS011;8123;50.906;6.172;2024-01-25T07:37:09;93.80;;;12.17;;
16037;SDS011;8123;50.906;6.172;2024-01-25T07:39:36;71.60;;;11.07;;
16037;SDS011;8123;50.906;6.172;2024-01-25T07:42:02;106.80;;;12.93;;
16037;SDS011;8123;50.906;6.172;2024-01-25T07:44:28;77.40;;;11.83;;
16037;SDS011;8123;50.906;6.172;2024-01-25T07:46:54;83.43;;;12.13;;
16037;SDS011;8123;50.906;6.172;2024-01-25T07:49:19;91.13;;;12.67;;
16037;SDS011;8123;50.906;6.172;2024-01-25T07:51:45;76.13;;;12.23;;
16037;SDS011;8123;50.906;6.172;2024-01-25T07:54:12;82.67;;;12.80;;
16037;SDS011;8123;50.906;6.172;2024-01-25T07:56:39;78.40;;;12.47;;
16037;SDS011;8123;50.906;6.172;2024-01-25T07:59:05;101.83;;;12.97;;
16037;SDS011;8123;50.906;6.172;2024-01-25T08:01:30;101.43;;;16.87;;
16037;SDS011;8123;50.906;6.172;2024-01-25T08:03:56;98.70;;;13.80;;
16037;SDS011;8123;50.906;6.172;2024-01-25T08:06:22;86.43;;;15.53;;
16037;SDS011;8123;50.906;6.172;2024-01-25T08:08:47;84.87;;;16.10;;
16037;SDS011;8123;50.906;6.172;2024-01-25T08:11:13;82.90;;;14.50;;
16037;SDS011;8123;50.906;6.172;2024-01-25T08:13:43;80.90;;;14.97;;
16037;SDS011;8123;50.906;6.172;2024-01-25T08:16:09;101.60;;;18.77;;
16037;SDS011;8123;50.906;6.172;2024-01-25T08:18:36;97.93;;;17.00;;
16037;SDS011;8123;50.906;6.172;2024-01-25T08:21:01;98.43;;;18.00;;
16037;SDS011;8123;50.906;6.172;2024-01-25T08:23:27;99.90;;;19.50;;
16037;SDS011;8123;50.906;6.172;2024-01-25T08:25:53;95.43;;;20.33;;
16037;SDS011;8123;50.906;6.172;2024-01-25T08:28:18;82.30;;;18.67;;
16037;SDS011;8123;50.906;6.172;2024-01-25T08:30:45;113.47;;;22.03;;
16037;SDS011;8123;50.906;6.172;2024-01-25T08:33:10;120.03;;;23.07;;
16037;SDS011;8123;50.906;6.172;2024-01-25T08:35:36;103.90;;;20.77;;
16037;SDS011;8123;50.906;6.172;2024-01-25T08:38:02;109.43;;;22.53;;
16037;SDS011;8123;50.906;6.172;2024-01-25T08:40:29;107.57;;;24.90;;
16037;SDS011;8123;50.906;6.172;2024-01-25T08:42:55;130.87;;;24.93;;
16037;SDS011;8123;50.906;6.172;2024-01-25T08:45:20;116.17;;;25.27;;
16037;SDS011;8123;50.906;6.172;2024-01-25T08:47:46;100.00;;;23.07;;
16037;SDS011;8123;50.906;6.172;2024-01-25T08:50:12;104.97;;;24.50;;
16037;SDS011;8123;50.906;6.172;2024-01-25T08:52:38;86.30;;;20.60;;
16037;SDS011;8123;50.906;6.172;2024-01-25T08:55:05;148.20;;;26.60;;
16037;SDS011;8123;50.906;6.172;2024-01-25T08:57:32;103.10;;;24.07;;
16037;SDS011;8123;50.906;6.172;2024-01-25T08:59:58;99.80;;;23.30;;
16037;SDS011;8123;50.906;6.172;2024-01-25T09:02:24;96.73;;;23.33;;
16037;SDS011;8123;50.906;6.172;2024-01-25T09:04:51;95.30;;;20.90;;
16037;SDS011;8123;50.906;6.172;2024-01-25T09:07:18;73.33;;;19.50;;
16037;SDS011;8123;50.906;6.172;2024-01-25T09:09:44;89.00;;;20.77;;
16037;SDS011;8123;50.906;6.172;2024-01-25T09:12:10;102.80;;;22.70;;
16037;SDS011;8123;50.906;6.172;2024-01-25T09:14:37;126.37;;;22.70;;
16037;SDS011;8123;50.906;6.172;2024-01-25T09:17:03;95.03;;;21.30;;
16037;SDS011;8123;50.906;6.172;2024-01-25T09:19:29;112.50;;;22.40;;
16037;SDS011;8123;50.906;6.172;2024-01-25T09:21:55;81.77;;;23.00;;
16037;SDS011;8123;50.906;6.172;2024-01-25T09:24:23;90.80;;;19.80;;
16037;SDS011;8123;50.906;6.172;2024-01-25T09:26:48;108.00;;;23.43;;
16037;SDS011;8123;50.906;6.172;2024-01-25T09:29:14;82.00;;;22.13;;
16037;SDS011;8123;50.906;6.172;2024-01-25T09:31:40;93.20;;;20.70;;
16037;SDS011;8123;50.906;6.172;2024-01-25T09:34:05;78.10;;;21.30;;
16037;SDS011;8123;50.906;6.172;2024-01-25T09:36:33;80.03;;;20.87;;
16037;SDS011;8123;50.906;6.172;2024-01-25T09:38:59;99.73;;;23.40;;
16037;SDS011;8123;50.906;6.172;2024-01-25T09:41:25;98.07;;;21.43;;
16037;SDS011;8123;50.906;6.172;2024-01-25T09:43:52;87.70;;;20.73;;
16037;SDS011;8123;50.906;6.172;2024-01-25T09:46:18;96.70;;;23.03;;
16037;SDS011;8123;50.906;6.172;2024-01-25T09:48:43;85.30;;;21.70;;
16037;SDS011;8123;50.906;6.172;2024-01-25T09:51:11;69.87;;;20.67;;
16037;SDS011;8123;50.906;6.172;2024-01-25T09:53:40;78.80;;;19.67;;
16037;SDS011;8123;50.906;6.172;2024-01-25T09:56:09;138.43;;;21.23;;
16037;SDS011;8123;50.906;6.172;2024-01-25T10:01:13;64.00;;;17.90;;
16037;SDS011;8123;50.906;6.172;2024-01-25T10:03:43;79.57;;;18.50;;
16037;SDS011;8123;50.906;6.172;2024-01-25T10:06:12;73.23;;;18.03;;
16037;SDS011;8123;50.906;6.172;2024-01-25T10:08:38;80.83;;;20.60;;
16037;SDS011;8123;50.906;6.172;2024-01-25T10:11:04;77.20;;;18.23;;
16037;SDS011;8123;50.906;6.172;2024-01-25T10:13:30;63.80;;;16.03;;
16037;SDS011;8123;50.906;6.172;2024-01-25T10:15:56;76.93;;;18.07;;
16037;SDS011;8123;50.906;6.172;2024-01-25T10:18:23;85.17;;;18.90;;
16037;SDS011;8123;50.906;6.172;2024-01-25T10:20:50;71.57;;;18.50;;
16037;SDS011;8123;50.906;6.172;2024-01-25T10:23:20;76.17;;;16.60;;
16037;SDS011;8123;50.906;6.172;2024-01-25T10:25:47;82.33;;;17.30;;
16037;SDS011;8123;50.906;6.172;2024-01-25T10:28:12;84.83;;;17.90;;
16037;SDS011;8123;50.906;6.172;2024-01-25T10:30:38;66.17;;;14.63;;
16037;SDS011;8123;50.906;6.172;2024-01-25T10:33:04;96.73;;;17.97;;
16037;SDS011;8123;50.906;6.172;2024-01-25T10:35:30;63.83;;;15.70;;
16037;SDS011;8123;50.906;6.172;2024-01-25T10:37:56;56.03;;;14.00;;
16037;SDS011;8123;50.906;6.172;2024-01-25T10:40:22;61.13;;;13.90;;
16037;SDS011;8123;50.906;6.172;2024-01-25T10:42:48;77.83;;;15.30;;
16037;SDS011;8123;50.906;6.172;2024-01-25T10:45:14;56.83;;;12.87;;
16037;SDS011;8123;50.906;6.172;2024-01-25T10:47:40;57.00;;;11.90;;
16037;SDS011;8123;50.906;6.172;2024-01-25T10:50:11;68.47;;;12.33;;
16037;SDS011;8123;50.906;6.172;2024-01-25T10:52:39;47.43;;;9.77;;
16037;SDS011;8123;50.906;6.172;2024-01-25T10:55:06;43.60;;;11.60;;
16037;SDS011;8123;50.906;6.172;2024-01-25T11:00:09;51.87;;;10.60;;
16037;SDS011;8123;50.906;6.172;2024-01-25T11:02:37;59.80;;;12.90;;
16037;SDS011;8123;50.906;6.172;2024-01-25T11:05:14;73.10;;;13.30;;
16037;SDS011;8123;50.906;6.172;2024-01-25T11:07:47;57.63;;;11.50;;
16037;SDS011;8123;50.906;6.172;2024-01-25T11:10:17;58.47;;;12.90;;
16037;SDS011;8123;50.906;6.172;2024-01-25T11:15:20;54.77;;;11.53;;
16037;SDS011;8123;50.906;6.172;2024-01-25T11:17:51;68.77;;;13.73;;
16037;SDS011;8123;50.906;6.172;2024-01-25T11:20:20;73.93;;;12.47;;
16037;SDS011;8123;50.906;6.172;2024-01-25T11:22:47;45.60;;;9.70;;
16037;SDS011;8123;50.906;6.172;2024-01-25T11:25:23;52.23;;;10.23;;
16037;SDS011;8123;50.906;6.172;2024-01-25T11:27:51;40.33;;;8.80;;
16037;SDS011;8123;50.906;6.172;2024-01-25T11:30:18;60.23;;;11.80;;
16037;SDS011;8123;50.906;6.172;2024-01-25T11:32:46;53.90;;;9.83;;
16037;SDS011;8123;50.906;6.172;2024-01-25T11:35:13;65.93;;;10.53;;
16037;SDS011;8123;50.906;6.172;2024-01-25T11:37:49;57.67;;;9.03;;
16037;SDS011;8123;50.906;6.172;2024-01-25T11:40:17;60.40;;;10.70;;
16037;SDS011;8123;50.906;6.172;2024-01-25T11:42:43;48.27;;;10.07;;
16037;SDS011;8123;50.906;6.172;2024-01-25T11:45:12;52.40;;;10.57;;
16037;SDS011;8123;50.906;6.172;2024-01-25T11:47:40;55.50;;;9.87;;
16037;SDS011;8123;50.906;6.172;2024-01-25T11:50:07;49.83;;;11.57;;
16037;SDS011;8123;50.906;6.172;2024-01-25T11:52:35;48.47;;;11.70;;
16037;SDS011;8123;50.906;6.172;2024-01-25T11:55:04;48.67;;;9.50;;
16037;SDS011;8123;50.906;6.172;2024-01-25T11:57:32;40.70;;;8.17;;
16037;SDS011;8123;50.906;6.172;2024-01-25T12:00:02;45.33;;;10.93;;
16037;SDS011;8123;50.906;6.172;2024-01-25T12:02:32;46.37;;;11.00;;
16037;SDS011;8123;50.906;6.172;2024-01-25T12:04:58;45.07;;;9.30;;
16037;SDS011;8123;50.906;6.172;2024-01-25T12:07:24;38.63;;;9.20;;
16037;SDS011;8123;50.906;6.172;2024-01-25T12:10:05;64.67;;;8.37;;
16037;SDS011;8123;50.906;6.172;2024-01-25T12:12:35;42.03;;;9.17;;
16037;SDS011;8123;50.906;6.172;2024-01-25T12:15:05;43.37;;;10.23;;
16037;SDS011;8123;50.906;6.172;2024-01-25T12:17:33;43.67;;;9.73;;
16037;SDS011;8123;50.906;6.172;2024-01-25T12:20:01;47.03;;;9.60;;
16037;SDS011;8123;50.906;6.172;2024-01-25T12:22:29;33.77;;;8.50;;
16037;SDS011;8123;50.906;6.172;2024-01-25T12:24:56;40.93;;;8.93;;
16037;SDS011;8123;50.906;6.172;2024-01-25T12:27:22;30.77;;;7.37;;
16037;SDS011;8123;50.906;6.172;2024-01-25T12:29:57;39.27;;;8.13;;
16037;SDS011;8123;50.906;6.172;2024-01-25T12:32:23;41.13;;;7.70;;
16037;SDS011;8123;50.906;6.172;2024-01-25T12:34:55;42.80;;;7.03;;
16037;SDS011;8123;50.906;6.172;2024-01-25T12:37:21;51.33;;;7.73;;
16037;SDS011;8123;50.906;6.172;2024-01-25T12:39:47;35.73;;;7.47;;
16037;SDS011;8123;50.906;6.172;2024-01-25T12:42:17;36.47;;;6.87;;
16037;SDS011;8123;50.906;6.172;2024-01-25T12:44:47;29.77;;;7.20;;
16037;SDS011;8123;50.906;6.172;2024-01-25T12:47:13;32.97;;;7.53;;
16037;SDS011;8123;50.906;6.172;2024-01-25T12:49:39;36.63;;;7.70;;
16037;SDS011;8123;50.906;6.172;2024-01-25T12:52:11;34.23;;;7.60;;
16037;SDS011;8123;50.906;6.172;2024-01-25T12:54:38;44.13;;;7.77;;
16037;SDS011;8123;50.906;6.172;2024-01-25T12:57:05;46.80;;;7.80;;
16037;SDS011;8123;50.906;6.172;2024-01-25T12:59:32;44.87;;;7.17;;
16037;SDS011;8123;50.906;6.172;2024-01-25T13:01:58;28.23;;;8.77;;
16037;SDS011;8123;50.906;6.172;2024-01-25T13:04:25;40.03;;;7.13;;
16037;SDS011;8123;50.906;6.172;2024-01-25T13:06:52;49.77;;;7.33;;
16037;SDS011;8123;50.906;6.172;2024-01-25T13:09:20;35.70;;;6.97;;
16037;SDS011;8123;50.906;6.172;2024-01-25T13:11:49;32.83;;;6.10;;
16037;SDS011;8123;50.906;6.172;2024-01-25T13:14:17;33.30;;;5.90;;
16037;SDS011;8123;50.906;6.172;2024-01-25T13:16:43;30.83;;;7.27;;
16037;SDS011;8123;50.906;6.172;2024-01-25T13:19:08;50.20;;;6.80;;
16037;SDS011;8123;50.906;6.172;2024-01-25T13:21:34;42.93;;;7.30;;
16037;SDS011;8123;50.906;6.172;2024-01-25T13:24:00;33.83;;;6.20;;
16037;SDS011;8123;50.906;6.172;2024-01-25T13:26:26;61.13;;;8.70;;
16037;SDS011;8123;50.906;6.172;2024-01-25T13:28:51;29.80;;;6.23;;
16037;SDS011;8123;50.906;6.172;2024-01-25T13:31:17;28.23;;;5.87;;
16037;SDS011;8123;50.906;6.172;2024-01-25T13:33:43;29.23;;;6.03;;
16037;SDS011;8123;50.906;6.172;2024-01-25T13:36:10;31.40;;;5.70;;
16037;SDS011;8123;50.906;6.172;2024-01-25T13:38:39;30.40;;;6.50;;
16037;SDS011;8123;50.906;6.172;2024-01-25T13:41:05;34.73;;;6.50;;
16037;SDS011;8123;50.906;6.172;2024-01-25T13:43:32;37.07;;;6.60;;
16037;SDS011;8123;50.906;6.172;2024-01-25T13:45:58;44.57;;;6.50;;
16037;SDS011;8123;50.906;6.172;2024-01-25T13:48:23;53.67;;;6.60;;
16037;SDS011;8123;50.906;6.172;2024-01-25T13:50:50;46.13;;;5.80;;
16037;SDS011;8123;50.906;6.172;2024-01-25T13:53:17;31.13;;;5.70;;
16037;SDS011;8123;50.906;6.172;2024-01-25T13:55:43;41.70;;;5.73;;
16037;SDS011;8123;50.906;6.172;2024-01-25T13:58:09;36.13;;;5.60;;
16037;SDS011;8123;50.906;6.172;2024-01-25T14:00:35;21.93;;;5.67;;
16037;SDS011;8123;50.906;6.172;2024-01-25T14:03:01;34.63;;;5.10;;
16037;SDS011;8123;50.906;6.172;2024-01-25T14:05:26;27.50;;;5.50;;
16037;SDS011;8123;50.906;6.172;2024-01-25T14:07:52;15.17;;;3.73;;
16037;SDS011;8123;50.906;6.172;2024-01-25T14:10:18;29.50;;;4.07;;
16037;SDS011;8123;50.906;6.172;2024-01-25T14:12:45;24.97;;;4.60;;
16037;SDS011;8123;50.906;6.172;2024-01-25T14:15:11;19.50;;;5.00;;
16037;SDS011;8123;50.906;6.172;2024-01-25T14:17:37;26.63;;;4.43;;
16037;SDS011;8123;50.906;6.172;2024-01-25T14:20:03;26.47;;;4.93;;
16037;SDS011;8123;50.906;6.172;2024-01-25T14:22:30;24.17;;;5.13;;
16037;SDS011;8123;50.906;6.172;2024-01-25T14:24:55;28.70;;;6.37;;
16037;SDS011;8123;50.906;6.172;2024-01-25T14:27:21;19.90;;;4.50;;
16037;SDS011;8123;50.906;6.172;2024-01-25T14:29:50;49.70;;;6.73;;
16037;SDS011;8123;50.906;6.172;2024-01-25T14:32:15;38.87;;;5.90;;
16037;SDS011;8123;50.906;6.172;2024-01-25T14:34:44;25.07;;;4.47;;
16037;SDS011;8123;50.906;6.172;2024-01-25T14:37:10;22.43;;;3.50;;
16037;SDS011;8123;50.906;6.172;2024-01-25T14:39:36;27.47;;;4.37;;
16037;SDS011;8123;50.906;6.172;2024-01-25T14:42:02;34.60;;;4.80;;
16037;SDS011;8123;50.906;6.172;2024-01-25T14:44:29;34.93;;;5.93;;